Time;durP1;ratioP1;P1;durP2;ratioP2;P2;SDS_P1;SDS_P2;PMS_P1;PMS_P2;Temp;Humidity;BMP_temperature;BMP_pressure;BME280_temperature;BME280_humidity;BME280_pressure;Samples;Min_cycle;Max_cycle;Signal;HPM_P1;HPM_P2
2021/12/16 00:02:56;;;;;;;295.37;28.77;;;2.20;1.00;196.50;224877.00;;;;4942987;29;20282;-90
2021/12/16 00:05:46;;;;;;;482.33;35.53;;;2.20;1.00;196.50;224877.00;;;;4942823;29;20681;-89
2021/12/16 00:08:29;;;;;;;577.07;38.10;;;2.20;1.00;196.50;224877.00;;;;4939426;29;20202;-89
2021/12/16 00:11:07;;;;;;;614.93;43.60;;;2.20;1.00;196.50;224877.00;;;;4923577;29;20203;-90
2021/12/16 00:30:42;;;;;;;976.43;51.23;;;2.20;1.00;196.50;224877.00;;;;4942363;29;20677;-89
2021/12/16 00:35:42;;;;;;;875.83;43.63;;;2.20;1.00;196.50;224877.00;;;;4942469;28;20573;-89
2021/12/16 00:38:09;;;;;;;796.27;43.47;;;2.10;1.00;196.50;224877.00;;;;4921519;29;20546;-89
2021/12/16 00:40:40;;;;;;;972.30;43.93;;;2.10;1.00;196.50;224877.00;;;;4905902;29;20227;-89
2021/12/16 00:43:32;;;;;;;766.67;35.37;;;2.10;1.00;196.50;224877.00;;;;4922079;29;20195;-88
2021/12/16 00:49:18;;;;;;;412.47;33.67;;;2.20;1.00;196.50;224877.00;;;;4937305;29;20196;-88
2021/12/16 00:54:23;;;;;;;814.13;41.37;;;2.20;1.00;196.50;224877.00;;;;4909500;29;20214;-89
2021/12/16 00:56:59;;;;;;;513.90;30.77;;;2.20;1.00;196.50;224877.00;;;;4924434;28;20195;-88
2021/12/16 00:59:32;;;;;;;536.40;32.90;;;2.10;1.00;196.50;224877.00;;;;4939851;29;20637;-90
2021/12/16 01:02:19;;;;;;;725.40;40.60;;;2.20;1.00;196.50;224877.00;;;;4924484;28;20282;-90
2021/12/16 01:33:30;;;;;;;573.03;29.47;;;2.10;1.00;196.50;224877.00;;;;4940682;29;20210;-90
2021/12/16 01:35:26;;;;;;;21.83;8.83;;;2.10;1.00;196.50;224877.00;;;;4940156;29;20207;-89
2021/12/16 01:41:20;;;;;;;23.17;8.70;;;2.10;1.00;196.50;224877.00;;;;4937504;29;20223;-88
2021/12/16 01:46:39;;;;;;;25.00;9.30;;;2.10;1.00;196.50;224877.00;;;;4940992;28;20195;-89
2021/12/16 01:49:37;;;;;;;29.40;10.43;;;2.10;1.00;196.50;224877.00;;;;4925501;29;20345;-89
2021/12/16 01:52:37;;;;;;;20.27;8.67;;;2.10;1.00;196.50;224877.00;;;;4913055;29;20533;-90
2021/12/16 01:57:38;;;;;;;30.30;9.57;;;2.10;1.00;196.50;224877.00;;;;4940764;29;20714;-90
2021/12/16 02:00:27;;;;;;;21.33;8.63;;;2.10;1.00;196.50;224877.00;;;;4924584;29;20555;-89
2021/12/16 02:03:05;;;;;;;22.67;8.60;;;2.00;1.00;196.50;224877.00;;;;4940238;29;20203;-87
2021/12/16 02:08:26;;;;;;;17.77;8.10;;;2.00;99.90;196.50;224877.00;;;;4939811;29;20187;-91
2021/12/16 02:11:15;;;;;;;14.30;7.10;;;2.10;1.00;196.50;224877.00;;;;4939977;29;20284;-90
2021/12/16 02:27:34;;;;;;;14.33;6.60;;;2.00;99.90;196.50;224877.00;;;;4947656;29;20187;-91
2021/12/16 02:33:12;;;;;;;15.43;7.50;;;2.00;99.90;196.50;224877.00;;;;4940846;28;20266;-91
2021/12/16 02:35:46;;;;;;;12.23;6.60;;;2.10;99.90;196.50;224877.00;;;;4925362;28;20301;-89
2021/12/16 02:38:20;;;;;;;13.20;5.93;;;2.10;99.90;196.50;224877.00;;;;4925714;29;20195;-91
2021/12/16 02:40:48;;;;;;;15.33;6.80;;;2.00;99.90;196.50;224877.00;;;;4924652;29;20222;-91
2021/12/16 02:43:38;;;;;;;18.87;7.07;;;2.00;99.90;196.50;224877.00;;;;4940805;29;20195;-91
2021/12/16 02:48:43;;;;;;;11.70;5.00;;;2.00;99.90;196.50;224877.00;;;;4921941;29;20206;-90
2021/12/16 02:51:26;;;;;;;8.60;5.20;;;2.00;99.90;196.50;224877.00;;;;4922305;29;20892;-91
2021/12/16 02:54:05;;;;;;;8.73;4.60;;;2.00;99.90;196.50;224877.00;;;;4939230;28;20195;-91
2021/12/16 02:56:34;;;;;;;8.53;4.83;;;2.00;99.90;196.50;224877.00;;;;4924680;29;20704;-90
2021/12/16 02:59:04;;;;;;;13.73;5.73;;;1.90;99.90;196.50;224877.00;;;;4924723;29;20199;-90
2021/12/16 03:01:51;;;;;;;10.40;4.73;;;2.00;99.90;196.50;224877.00;;;;4924322;29;20223;-91
2021/12/16 03:04:22;;;;;;;13.90;4.93;;;2.10;99.90;196.50;224877.00;;;;4940727;29;20191;-91
2021/12/16 03:06:54;;;;;;;14.37;5.47;;;2.00;99.90;196.50;224877.00;;;;4940249;29;20254;-90
2021/12/16 03:09:56;;;;;;;8.77;4.30;;;2.00;99.90;196.50;224877.00;;;;4924983;29;20183;-91
2021/12/16 03:15:03;;;;;;;6.50;4.37;;;2.10;99.90;196.50;224877.00;;;;4940630;29;20209;-90
2021/12/16 03:17:43;;;;;;;8.13;4.50;;;2.20;99.90;196.50;224877.00;;;;4925045;29;20209;-91
2021/12/16 03:20:22;;;;;;;7.13;4.07;;;2.10;99.90;196.50;224877.00;;;;4940443;29;20285;-92
2021/12/16 03:28:54;;;;;;;7.73;4.33;;;2.00;99.90;196.50;224877.00;;;;4940042;29;20199;-88
2021/12/16 03:37:00;;;;;;;8.17;4.30;;;2.10;99.90;196.50;224877.00;;;;4942329;28;20214;-89
2021/12/16 03:39:32;;;;;;;16.27;5.20;;;2.00;99.90;196.50;224877.00;;;;4927979;28;20206;-90
2021/12/16 03:41:59;;;;;;;7.07;4.30;;;2.00;99.90;196.50;224877.00;;;;4927098;29;20274;-88
2021/12/16 03:44:37;;;;;;;7.00;3.40;;;2.00;99.90;196.50;224877.00;;;;4927553;28;20291;-90
2021/12/16 03:47:05;;;;;;;6.27;3.53;;;2.10;99.90;196.50;224877.00;;;;4927875;29;20203;-90
2021/12/16 03:49:33;;;;;;;6.90;3.70;;;2.10;99.90;196.50;224877.00;;;;4927954;29;20670;-91
2021/12/16 03:52:07;;;;;;;9.10;3.53;;;2.10;99.90;196.50;224877.00;;;;4928227;29;20569;-89
2021/12/16 03:54:49;;;;;;;4.80;2.90;;;2.10;99.90;196.50;224877.00;;;;4943592;29;20669;-89
2021/12/16 03:57:23;;;;;;;5.63;3.27;;;2.10;99.90;196.50;224877.00;;;;4933930;29;20647;-89
2021/12/16 03:59:53;;;;;;;8.10;3.93;;;2.00;99.90;196.50;224877.00;;;;4927806;28;20214;-91
2021/12/16 04:02:32;;;;;;;6.30;3.00;;;2.00;99.90;196.50;224877.00;;;;4927780;29;20227;-90
2021/12/16 04:05:07;;;;;;;9.70;4.17;;;2.00;99.90;196.50;224877.00;;;;4943259;29;20222;-90
2021/12/16 04:07:36;;;;;;;6.73;3.00;;;2.00;99.90;196.50;224877.00;;;;4911665;29;20191;-90
2021/12/16 04:10:12;;;;;;;6.77;3.17;;;2.00;99.90;196.50;224877.00;;;;4927225;29;20420;-91
2021/12/16 04:12:40;;;;;;;5.33;3.10;;;2.00;99.90;196.50;224877.00;;;;4927802;29;20250;-90
2021/12/16 04:15:10;;;;;;;4.97;3.17;;;2.00;99.90;196.50;224877.00;;;;4927407;29;20195;-88
2021/12/16 04:17:38;;;;;;;6.03;3.03;;;2.00;99.90;196.50;224877.00;;;;4943612;29;20678;-91
2021/12/16 04:20:24;;;;;;;4.97;2.77;;;2.00;99.90;196.50;224877.00;;;;4929657;29;20669;-90
2021/12/16 04:22:52;;;;;;;7.37;3.13;;;2.00;1.40;196.50;224877.00;;;;4927442;28;20231;-90
2021/12/16 04:25:25;;;;;;;6.97;3.10;;;2.00;1.00;196.50;224877.00;;;;4930108;29;20606;-91
2021/12/16 04:27:57;;;;;;;7.40;3.23;;;2.00;1.00;196.50;224877.00;;;;4927117;29;20204;-91
2021/12/16 04:30:29;;;;;;;7.47;3.17;;;2.00;1.00;196.50;224877.00;;;;4942381;29;20195;-90
2021/12/16 04:32:56;;;;;;;3.70;2.60;;;2.00;1.00;196.50;224877.00;;;;4911034;28;20290;-90
2021/12/16 04:35:24;;;;;;;5.63;3.20;;;2.10;1.00;196.50;224877.00;;;;4927007;29;20211;-89
2021/12/16 04:37:52;;;;;;;5.30;2.73;;;2.10;1.00;196.50;224877.00;;;;4923796;29;20270;-90
2021/12/16 04:40:20;;;;;;;5.47;2.70;;;2.10;1.00;196.50;224877.00;;;;4926841;29;20199;-90
2021/12/16 04:42:49;;;;;;;4.97;2.57;;;2.10;1.00;196.50;224877.00;;;;4926857;29;20207;-90
2021/12/16 04:45:22;;;;;;;5.83;2.93;;;2.10;1.00;196.50;224877.00;;;;4926441;29;20196;-90
2021/12/16 04:47:49;;;;;;;7.77;2.90;;;2.10;1.00;196.50;224877.00;;;;4925770;29;20602;-90
2021/12/16 04:50:17;;;;;;;6.30;2.80;;;2.10;1.00;196.50;224877.00;;;;4942673;29;20195;-90
2021/12/16 04:52:46;;;;;;;4.73;2.53;;;2.10;1.00;196.50;224877.00;;;;4927315;29;20552;-90
2021/12/16 04:55:17;;;;;;;6.37;3.07;;;2.10;1.00;196.50;224877.00;;;;4942340;28;20328;-90
2021/12/16 04:57:44;;;;;;;5.63;2.70;;;2.10;1.00;196.50;224877.00;;;;4926934;29;20233;-90
2021/12/16 05:00:15;;;;;;;4.93;2.53;;;2.00;1.00;196.50;224877.00;;;;4942685;29;20291;-90
2021/12/16 05:02:44;;;;;;;3.83;2.13;;;2.00;1.00;196.50;224877.00;;;;4942178;29;20905;-90
2021/12/16 05:05:13;;;;;;;5.07;2.60;;;2.10;1.00;196.50;224877.00;;;;4925133;29;20706;-89
2021/12/16 05:07:43;;;;;;;5.97;2.30;;;2.10;1.00;196.50;224877.00;;;;4934437;29;20663;-90
2021/12/16 05:10:13;;;;;;;7.40;5.03;;;2.10;1.00;196.50;224877.00;;;;4938844;29;20210;-90
2021/12/16 05:12:46;;;;;;;4.07;2.40;;;2.10;1.00;196.50;224877.00;;;;4907753;29;20200;-90
2021/12/16 05:15:20;;;;;;;4.67;2.20;;;2.10;1.00;196.50;224877.00;;;;4942647;29;20672;-91
2021/12/16 05:17:51;;;;;;;5.17;3.03;;;2.20;1.00;196.50;224877.00;;;;4942723;29;20199;-91
2021/12/16 05:20:30;;;;;;;4.87;2.43;;;2.20;1.00;196.50;224877.00;;;;4943245;29;20578;-91
2021/12/16 05:28:23;;;;;;;3.33;2.20;;;2.10;1.00;196.50;224877.00;;;;4941854;29;20596;-91
2021/12/16 05:30:52;;;;;;;5.17;1.87;;;2.10;1.00;196.50;224877.00;;;;4925714;29;20188;-91
2021/12/16 05:33:22;;;;;;;3.30;1.90;;;2.20;1.00;196.50;224877.00;;;;4941627;29;20670;-91
2021/12/16 05:35:51;;;;;;;4.33;2.07;;;2.20;1.00;196.50;224877.00;;;;4941142;29;20194;-91
2021/12/16 05:38:18;;;;;;;4.33;1.90;;;2.20;1.00;196.50;224877.00;;;;4924690;29;20219;-91
2021/12/16 05:40:47;;;;;;;2.53;1.90;;;2.20;1.00;196.50;224877.00;;;;4932475;29;20219;-91
2021/12/16 05:43:17;;;;;;;4.97;1.90;;;2.10;1.00;196.50;224877.00;;;;4925775;29;20226;-90
2021/12/16 05:45:46;;;;;;;3.30;2.07;;;2.20;1.00;196.50;224877.00;;;;4929418;29;20184;-90
2021/12/16 05:48:19;;;;;;;3.47;1.90;;;2.20;1.00;196.50;224877.00;;;;4924889;29;20658;-90
2021/12/16 05:50:54;;;;;;;2.63;1.80;;;2.20;1.00;196.50;224877.00;;;;4943947;29;20198;-91
2021/12/16 05:53:22;;;;;;;2.80;1.90;;;2.20;1.00;196.50;224877.00;;;;4942994;29;20203;-91
2021/12/16 05:55:51;;;;;;;3.27;1.87;;;2.20;1.00;196.50;224877.00;;;;4943397;28;20202;-90
2021/12/16 05:58:20;;;;;;;2.50;1.90;;;2.20;1.00;196.50;224877.00;;;;4936009;28;20843;-91
2021/12/16 06:00:53;;;;;;;2.53;1.83;;;2.30;1.00;196.50;224877.00;;;;4946197;28;20225;-91
2021/12/16 06:03:21;;;;;;;3.37;1.83;;;2.20;1.00;196.50;224877.00;;;;4942102;29;20761;-92
2021/12/16 06:05:52;;;;;;;4.27;2.00;;;2.30;1.00;196.50;224877.00;;;;4925664;28;20659;-92
2021/12/16 06:08:20;;;;;;;3.70;2.00;;;2.30;1.00;196.50;224877.00;;;;4928044;28;20187;-93
2021/12/16 06:11:15;;;;;;;2.57;1.83;;;2.30;1.00;196.50;224877.00;;;;4907356;29;20188;-91
2021/12/16 06:14:12;;;;;;;2.40;1.77;;;2.30;1.00;196.50;224877.00;;;;4924499;29;20219;-92
2021/12/16 06:27:37;;;;;;;3.90;2.40;;;2.30;1.00;196.50;224877.00;;;;4928827;29;20187;-92
2021/12/16 06:30:09;;;;;;;3.50;2.30;;;2.30;1.00;196.50;224877.00;;;;4932813;28;20196;-92
2021/12/16 06:32:36;;;;;;;3.87;2.50;;;2.40;1.00;196.50;224877.00;;;;4927046;29;20298;-92
2021/12/16 06:35:06;;;;;;;5.07;2.20;;;2.40;1.00;196.50;224877.00;;;;4942322;29;20693;-92
2021/12/16 06:37:33;;;;;;;2.30;2.10;;;2.30;1.00;196.50;224877.00;;;;4926685;29;20214;-93
2021/12/16 06:40:02;;;;;;;2.97;2.60;;;2.30;1.00;196.50;224877.00;;;;4926801;29;20226;-92
2021/12/16 06:42:51;;;;;;;4.40;2.93;;;2.40;1.00;196.50;224877.00;;;;4930450;29;20666;-94
2021/12/16 06:45:24;;;;;;;5.37;3.00;;;2.30;1.00;196.50;224877.00;;;;4927666;29;20246;-93
2021/12/16 06:48:08;;;;;;;5.93;3.30;;;2.30;1.00;196.50;224877.00;;;;4929204;29;20202;-92
2021/12/16 06:58:09;;;;;;;4.90;3.43;;;2.40;1.00;196.50;224877.00;;;;4881803;29;20194;-94
2021/12/16 07:04:17;;;;;;;7.07;3.20;;;2.30;1.00;196.50;224877.00;;;;4847267;29;20293;-92
2021/12/16 07:06:48;;;;;;;8.53;3.57;;;2.30;1.00;196.50;224877.00;;;;4848848;29;20198;-93
2021/12/16 07:09:20;;;;;;;5.20;3.50;;;2.30;1.00;196.50;224877.00;;;;4852176;29;20206;-94
2021/12/16 07:11:56;;;;;;;4.67;3.30;;;2.30;1.00;196.50;224877.00;;;;4851468;29;20203;-94
2021/12/16 07:14:46;;;;;;;4.17;3.10;;;2.30;1.00;196.50;224877.00;;;;4836532;29;20200;-92
2021/12/16 07:17:39;;;;;;;6.47;3.70;;;2.30;1.00;196.50;224877.00;;;;4863735;29;20682;-94
2021/12/16 07:20:20;;;;;;;5.57;3.27;;;2.30;1.00;196.50;224877.00;;;;4847181;29;20210;-92
2021/12/16 07:23:00;;;;;;;4.80;3.47;;;2.30;1.00;196.50;224877.00;;;;4914039;29;20220;-94
2021/12/16 07:25:54;;;;;;;5.47;3.27;;;2.30;1.00;196.50;224877.00;;;;4884947;29;20196;-94
2021/12/16 07:28:50;;;;;;;;;;;;;;;;;;;;;
2021/12/16 07:31:41;;;;;;;4.87;3.77;;;2.30;1.00;196.50;224877.00;;;;4886312;29;20197;-94
2021/12/16 07:34:11;;;;;;;5.10;2.83;;;2.30;1.00;196.50;224877.00;;;;4871233;29;20791;-93
2021/12/16 07:36:48;;;;;;;3.77;3.27;;;2.30;1.00;196.50;224877.00;;;;4869450;29;20291;-92
2021/12/16 07:39:46;;;;;;;4.40;3.27;;;2.40;1.00;196.50;224877.00;;;;4902233;29;20192;-96
2021/12/16 07:42:22;;;;;;;3.63;3.07;;;2.40;1.00;196.50;224877.00;;;;4886801;29;20239;-95
2021/12/16 07:44:59;;;;;;;4.97;2.97;;;2.40;1.00;196.50;224877.00;;;;4876873;29;20229;-93
2021/12/16 07:47:31;;;;;;;5.47;3.37;;;2.40;1.00;196.50;224877.00;;;;4871177;29;20197;-94
2021/12/16 07:50:04;;;;;;;4.90;3.27;;;2.40;1.00;196.50;224877.00;;;;4871355;29;20674;-94
2021/12/16 07:52:35;;;;;;;5.53;3.40;;;2.40;1.00;196.50;224877.00;;;;4871056;29;20210;-93
2021/12/16 07:55:20;;;;;;;4.77;3.80;;;2.50;1.00;196.50;224877.00;;;;4872382;29;20311;-95
2021/12/16 07:58:23;;;;;;;4.87;3.30;;;2.50;1.00;196.50;224877.00;;;;4869443;29;20197;-95
2021/12/16 08:01:11;;;;;;;7.50;3.50;;;2.60;1.00;196.50;224877.00;;;;4871003;29;20205;-94
2021/12/16 08:03:53;;;;;;;5.30;3.60;;;2.60;1.00;196.50;224877.00;;;;4875283;29;20308;-94
2021/12/16 08:07:20;;;;;;;;;;;;;;;;;;;;;
2021/12/16 08:10:21;;;;;;;7.53;4.57;;;2.60;1.00;196.50;224877.00;;;;4935345;28;20234;-95
2021/12/16 08:12:58;;;;;;;7.03;5.07;;;2.60;1.00;196.50;224877.00;;;;4927099;29;20199;-94
2021/12/16 08:15:29;;;;;;;7.87;5.03;;;2.70;1.00;196.50;224877.00;;;;4944621;28;20206;-94
2021/12/16 08:18:02;;;;;;;7.53;5.90;;;2.80;1.00;196.50;224877.00;;;;4928204;29;20263;-93
2021/12/16 08:20:45;;;;;;;7.77;5.40;;;2.70;1.00;196.50;224877.00;;;;4946184;28;20203;-94
2021/12/16 08:23:14;;;;;;;8.17;5.97;;;2.70;1.00;196.50;224877.00;;;;4931014;28;20298;-93
2021/12/16 08:26:19;;;;;;;8.67;6.33;;;2.70;1.00;196.50;224877.00;;;;4932219;29;20187;-95
2021/12/16 08:30:16;;;;;;;7.17;6.13;;;2.80;1.00;196.50;224877.00;;;;4924391;29;20232;-94
2021/12/16 08:32:48;;;;;;;5.33;4.50;;;2.80;1.00;196.50;224877.00;;;;4887630;29;20597;-94
2021/12/16 08:35:26;;;;;;;7.30;5.00;;;2.80;1.00;196.50;224877.00;;;;4894840;29;20224;-92
2021/12/16 08:38:23;;;;;;;7.03;5.10;;;2.80;1.00;196.50;224877.00;;;;4896954;29;20235;-94
2021/12/16 08:41:05;;;;;;;5.63;4.57;;;2.90;1.00;196.50;224877.00;;;;4909003;29;20216;-92
2021/12/16 08:43:40;;;;;;;7.97;4.83;;;2.90;1.00;196.50;224877.00;;;;4891018;29;20208;-93
2021/12/16 08:46:37;;;;;;;8.83;5.07;;;3.00;1.00;196.50;224877.00;;;;4895445;29;20192;-94
2021/12/16 08:49:50;;;;;;;6.53;5.00;;;3.00;1.00;196.50;224877.00;;;;4891368;29;20222;-93
2021/12/16 08:52:40;;;;;;;7.53;5.20;;;3.10;1.00;196.50;224877.00;;;;4888711;29;20636;-93
2021/12/16 08:55:38;;;;;;;6.67;4.80;;;3.20;1.00;196.50;224877.00;;;;4890893;29;20274;-93
2021/12/16 08:58:06;;;;;;;4.63;3.93;;;3.20;1.00;196.50;224877.00;;;;4890208;29;20211;-92
2021/12/16 09:01:02;;;;;;;5.17;4.10;;;3.20;1.00;196.50;224877.00;;;;4928309;29;20199;-92
2021/12/16 09:03:30;;;;;;;4.93;3.93;;;3.10;1.00;196.50;224877.00;;;;4910512;29;20247;-93
2021/12/16 09:05:58;;;;;;;5.47;4.37;;;3.20;1.00;196.50;224877.00;;;;4941064;29;20245;-94
2021/12/16 09:08:26;;;;;;;5.37;4.13;;;3.30;1.00;196.50;224877.00;;;;4910162;29;20199;-92
2021/12/16 09:10:55;;;;;;;6.03;4.57;;;3.30;1.00;196.50;224877.00;;;;4912060;28;20670;-93
2021/12/16 09:13:23;;;;;;;5.83;4.10;;;3.40;1.00;196.50;224877.00;;;;4928886;29;20195;-92
2021/12/16 09:16:28;;;;;;;4.90;4.20;;;3.50;1.00;196.50;224877.00;;;;4929112;29;20613;-92
2021/12/16 09:19:55;;;;;;;7.07;4.53;;;3.60;1.00;196.50;224877.00;;;;4894066;29;20209;-93
2021/12/16 09:22:38;;;;;;;9.07;5.13;;;3.60;1.00;196.50;224877.00;;;;4872929;29;20241;-93
2021/12/16 09:25:44;;;;;;;6.43;4.90;;;3.60;1.00;196.50;224877.00;;;;4887516;29;20185;-94
2021/12/16 09:28:12;;;;;;;6.23;4.20;;;3.70;1.00;196.50;224877.00;;;;4867671;29;20236;-92
2021/12/16 09:30:41;;;;;;;7.93;5.93;;;3.60;1.00;196.50;224877.00;;;;4884044;29;20202;-94
2021/12/16 09:33:15;;;;;;;6.40;5.07;;;3.70;1.00;196.50;224877.00;;;;4887152;29;20224;-94
2021/12/16 09:36:18;;;;;;;6.67;5.40;;;3.70;1.00;196.50;224877.00;;;;4886996;29;20210;-93
2021/12/16 09:39:29;;;;;;;6.80;4.60;;;3.80;1.00;196.50;224877.00;;;;4915871;29;20237;-94
2021/12/16 09:47:57;;;;;;;;;;;;;;;;;;;;;
2021/12/16 09:50:52;;;;;;;5.63;4.13;;;4.00;99.90;196.50;224877.00;;;;4905131;29;20206;-91
2021/12/16 09:53:29;;;;;;;6.83;4.47;;;4.10;99.90;196.50;224877.00;;;;4927519;29;20219;-92
2021/12/16 09:56:11;;;;;;;6.10;5.37;;;4.10;99.90;196.50;224877.00;;;;4921961;28;20195;-91
2021/12/16 09:58:43;;;;;;;6.93;5.90;;;4.20;99.90;196.50;224877.00;;;;4927659;28;20674;-92
2021/12/16 10:01:14;;;;;;;6.90;5.70;;;4.20;99.90;196.50;224877.00;;;;4942489;29;20213;-91
2021/12/16 10:03:45;;;;;;;6.37;5.13;;;4.20;92.40;196.50;224877.00;;;;4941898;29;20578;-91
2021/12/16 10:06:15;;;;;;;6.63;5.47;;;4.20;16.40;196.50;224877.00;;;;4942689;29;20211;-91
2021/12/16 10:08:46;;;;;;;8.50;5.80;;;4.30;1.00;196.50;224877.00;;;;4926234;29;20195;-92
2021/12/16 10:11:16;;;;;;;9.30;6.80;;;4.40;1.00;196.50;224877.00;;;;4925931;29;20199;-89
2021/12/16 10:19:05;;;;;;;11.93;8.63;;;4.50;1.00;196.50;224877.00;;;;4942137;29;20250;-91
2021/12/16 10:21:32;;;;;;;9.73;7.10;;;4.70;1.00;196.50;224877.00;;;;4927537;29;20215;-92
2021/12/16 10:23:59;;;;;;;6.23;5.10;;;4.70;1.00;196.50;224877.00;;;;4927557;28;20219;-91
2021/12/16 10:26:27;;;;;;;9.47;6.37;;;4.80;99.90;196.50;224877.00;;;;4927230;29;20680;-91
2021/12/16 10:28:59;;;;;;;6.93;5.70;;;4.80;99.90;196.50;224877.00;;;;4926550;28;20222;-91
2021/12/16 10:31:35;;;;;;;6.17;5.30;;;4.90;99.90;196.50;224877.00;;;;4926465;29;20278;-92
2021/12/16 10:34:10;;;;;;;8.70;5.73;;;4.90;1.00;196.50;224877.00;;;;4925353;29;20201;-89
2021/12/16 10:36:45;;;;;;;9.50;5.80;;;5.00;1.00;196.50;224877.00;;;;4941674;29;20591;-91
2021/12/16 10:39:22;;;;;;;7.20;5.77;;;5.00;1.00;196.50;224877.00;;;;4925486;29;20195;-93
2021/12/16 10:42:00;;;;;;;6.33;5.27;;;5.10;1.00;196.50;224877.00;;;;4942388;29;20645;-92
2021/12/16 10:44:33;;;;;;;7.67;5.30;;;5.20;1.00;196.50;224877.00;;;;4941678;29;20238;-93
2021/12/16 10:47:13;;;;;;;6.93;5.83;;;5.20;1.00;196.50;224877.00;;;;4942473;29;20195;-92
2021/12/16 10:49:52;;;;;;;8.87;5.40;;;5.30;1.00;196.50;224877.00;;;;4941269;29;20294;-92
2021/12/16 10:52:28;;;;;;;6.40;5.40;;;5.40;1.00;196.50;224877.00;;;;4941475;29;20201;-91
2021/12/16 10:54:58;;;;;;;8.43;6.50;;;5.40;1.00;196.50;224877.00;;;;4941170;28;20552;-90
2021/12/16 10:57:32;;;;;;;7.23;6.40;;;5.50;1.00;196.50;224877.00;;;;4925417;29;20662;-91
2021/12/16 11:00:15;;;;;;;7.43;5.67;;;5.60;99.90;196.50;224877.00;;;;4925024;29;20223;-91
2021/12/16 11:02:42;;;;;;;14.50;10.13;;;5.70;99.90;196.50;224877.00;;;;4925945;29;20229;-92
2021/12/16 11:05:22;;;;;;;8.40;5.50;;;5.70;99.90;196.50;224877.00;;;;4924417;29;20192;-89
2021/12/16 11:07:55;;;;;;;6.13;4.73;;;5.70;99.90;196.50;224877.00;;;;4957260;28;20562;-90
2021/12/16 11:10:31;;;;;;;8.53;5.17;;;5.80;99.90;196.50;224877.00;;;;4924667;29;20206;-90
2021/12/16 11:13:09;;;;;;;7.43;5.70;;;5.80;1.00;196.50;224877.00;;;;4925173;29;20256;-92
2021/12/16 11:15:47;;;;;;;6.60;4.97;;;5.80;1.00;196.50;224877.00;;;;4925356;29;20203;-91
2021/12/16 11:18:22;;;;;;;6.83;5.10;;;5.90;1.00;196.50;224877.00;;;;4925760;28;20240;-91
2021/12/16 11:20:59;;;;;;;6.67;5.97;;;5.90;1.00;196.50;224877.00;;;;4940903;29;20199;-92
2021/12/16 11:23:40;;;;;;;6.97;4.33;;;5.90;1.00;196.50;224877.00;;;;4940296;29;20313;-91
2021/12/16 11:26:26;;;;;;;3.87;3.47;;;5.80;1.00;196.50;224877.00;;;;4941669;29;20199;-89
2021/12/16 11:28:55;;;;;;;7.33;5.37;;;5.80;1.00;196.50;224877.00;;;;4924768;29;20196;-91
2021/12/16 11:31:29;;;;;;;5.83;4.80;;;5.80;1.00;196.50;224877.00;;;;4924821;29;20191;-89
2021/12/16 11:34:01;;;;;;;4.27;3.87;;;5.90;1.00;196.50;224877.00;;;;4940213;29;20242;-89
2021/12/16 11:36:32;;;;;;;5.37;3.77;;;5.90;1.00;196.50;224877.00;;;;4924716;29;20207;-88
2021/12/16 11:39:27;;;;;;;5.97;5.40;;;5.90;1.00;196.50;224877.00;;;;4922954;29;20697;-88
2021/12/16 11:42:03;;;;;;;8.50;5.63;;;5.90;1.00;196.50;224877.00;;;;4913693;29;20690;-90
2021/12/16 11:44:38;;;;;;;5.03;3.80;;;5.90;1.00;196.50;224877.00;;;;4911992;29;20267;-91
2021/12/16 11:47:19;;;;;;;5.43;3.93;;;5.90;1.00;196.50;224877.00;;;;4931858;29;20666;-90
2021/12/16 11:49:59;;;;;;;4.03;3.57;;;5.80;1.00;196.50;224877.00;;;;4921137;28;20277;-90
2021/12/16 11:52:35;;;;;;;6.60;4.43;;;5.80;1.00;196.50;224877.00;;;;4912221;28;20654;-89
2021/12/16 11:55:14;;;;;;;10.67;5.80;;;5.80;1.00;196.50;224877.00;;;;4918373;29;20235;-90
2021/12/16 11:57:48;;;;;;;5.10;4.07;;;5.80;1.00;196.50;224877.00;;;;4939287;29;20179;-89
2021/12/16 12:00:26;;;;;;;6.17;4.93;;;5.80;99.90;196.50;224877.00;;;;4926602;29;20277;-91
2021/12/16 12:03:07;;;;;;;6.83;5.00;;;5.70;1.00;196.50;224877.00;;;;4925422;28;20187;-89
2021/12/16 12:05:45;;;;;;;8.00;5.57;;;5.80;1.00;196.50;224877.00;;;;4939966;29;20211;-89
2021/12/16 12:08:26;;;;;;;6.93;6.13;;;5.80;1.00;196.50;224877.00;;;;4937612;29;20198;-89
2021/12/16 12:11:12;;;;;;;8.00;5.80;;;5.80;1.00;196.50;224877.00;;;;4918447;29;20203;-91
2021/12/16 12:13:47;;;;;;;7.40;5.07;;;5.80;1.00;196.50;224877.00;;;;4938948;29;20199;-91
2021/12/16 12:16:24;;;;;;;4.70;4.20;;;5.80;1.00;196.50;224877.00;;;;4939260;29;20536;-90
2021/12/16 12:19:18;;;;;;;6.33;4.90;;;5.60;1.00;196.50;224877.00;;;;4930023;28;20195;-91
2021/12/16 12:22:03;;;;;;;5.67;4.90;;;5.60;1.00;196.50;224877.00;;;;4925861;29;20191;-90
2021/12/16 12:24:46;;;;;;;7.77;4.80;;;5.60;1.00;196.50;224877.00;;;;4957758;28;20299;-91
2021/12/16 12:27:27;;;;;;;5.67;4.90;;;5.60;1.00;196.50;224877.00;;;;4945338;28;20183;-90
2021/12/16 12:30:07;;;;;;;5.70;4.87;;;5.60;1.00;196.50;224877.00;;;;4935538;29;20194;-89
2021/12/16 12:32:53;;;;;;;7.03;4.50;;;5.60;1.00;196.50;224877.00;;;;4923558;29;20184;-90
2021/12/16 12:36:09;;;;;;;4.33;3.93;;;5.60;1.00;196.50;224877.00;;;;4943198;28;20204;-89
2021/12/16 12:38:59;;;;;;;4.63;3.73;;;5.60;1.00;196.50;224877.00;;;;4915833;29;20298;-90
2021/12/16 12:41:52;;;;;;;3.47;3.13;;;5.80;1.00;196.50;224877.00;;;;4926755;28;20219;-90
2021/12/16 12:45:01;;;;;;;4.17;3.30;;;5.90;1.00;196.50;224877.00;;;;4922975;29;20219;-90
2021/12/16 12:48:47;;;;;;;5.83;3.40;;;5.90;1.00;196.50;224877.00;;;;4937404;29;20194;-90
2021/12/16 12:52:28;;;;;;;4.03;3.40;;;6.00;1.00;196.50;224877.00;;;;4884188;29;20189;-91
2021/12/16 12:55:16;;;;;;;5.63;3.87;;;6.10;1.00;196.50;224877.00;;;;4899650;29;20193;-91
2021/12/16 12:58:15;;;;;;;6.10;4.47;;;6.10;1.00;196.50;224877.00;;;;4893913;29;20196;-91
2021/12/16 13:01:35;;;;;;;6.27;5.07;;;6.20;1.00;196.50;224877.00;;;;4897013;29;20728;-91
2021/12/16 13:04:27;;;;;;;9.53;6.47;;;6.20;1.00;196.50;224877.00;;;;4879303;29;20412;-92
2021/12/16 13:07:13;;;;;;;7.70;4.40;;;6.20;1.00;196.50;224877.00;;;;4895291;29;20601;-89
2021/12/16 13:09:56;;;;;;;5.13;4.00;;;6.10;1.00;196.50;224877.00;;;;4919499;29;20203;-89
2021/12/16 13:13:46;;;;;;;6.13;4.50;;;6.10;1.00;196.50;224877.00;;;;4919321;29;20654;-89
2021/12/16 13:31:43;;;;;;;5.20;4.70;;;5.80;1.00;196.50;224877.00;;;;4942953;28;20199;-90
2021/12/16 13:34:49;;;;;;;6.73;5.60;;;5.80;1.00;196.50;224877.00;;;;4944816;28;20195;-88
2021/12/16 13:37:35;;;;;;;8.27;5.07;;;5.80;1.00;196.50;224877.00;;;;4947064;28;20227;-90
2021/12/16 13:40:54;;;;;;;5.23;4.17;;;5.80;1.00;196.50;224877.00;;;;4930608;29;20191;-90
2021/12/16 13:43:36;;;;;;;5.93;5.07;;;5.80;1.00;196.50;224877.00;;;;4854682;29;20209;-90
2021/12/16 13:49:01;;;;;;;9.10;5.33;;;5.50;1.00;196.50;224877.00;;;;4909258;29;20667;-89
2021/12/16 14:06:21;;;;;;;8.53;5.80;;;5.30;1.00;196.50;224877.00;;;;4940312;28;20695;-88
2021/12/16 14:08:52;;;;;;;7.43;4.77;;;5.30;1.00;196.50;224877.00;;;;4935600;29;20190;-89
2021/12/16 14:15:18;;;;;;;6.13;4.50;;;5.30;1.00;196.50;224877.00;;;;4937994;28;20219;-90
2021/12/16 14:23:09;;;;;;;6.57;4.90;;;5.20;1.00;196.50;224877.00;;;;4841156;29;20211;-91
2021/12/16 14:31:23;;;;;;;6.70;4.97;;;5.10;65.30;196.50;224877.00;;;;4940813;29;20199;-91
2021/12/16 14:42:16;;;;;;;9.30;5.63;;;4.90;66.30;196.50;224877.00;;;;4937574;28;20218;-88
2021/12/16 14:50:31;;;;;;;7.53;5.80;;;4.80;99.90;196.50;224877.00;;;;4952459;29;20199;-88
2021/12/16 14:53:18;;;;;;;12.27;7.27;;;4.70;99.90;196.50;224877.00;;;;4924143;29;20249;-88
2021/12/16 14:55:54;;;;;;;8.97;6.90;;;4.70;99.90;196.50;224877.00;;;;4938229;29;20230;-90
2021/12/16 14:58:30;;;;;;;11.90;7.40;;;4.60;99.90;196.50;224877.00;;;;4924886;29;20631;-89
2021/12/16 15:01:05;;;;;;;7.87;6.17;;;4.60;99.90;196.50;224877.00;;;;4939978;29;20191;-89
2021/12/16 15:03:41;;;;;;;8.77;6.30;;;4.60;99.90;196.50;224877.00;;;;4923837;28;20610;-90
2021/12/16 15:06:56;;;;;;;8.70;6.60;;;4.50;99.90;196.50;224877.00;;;;4940050;29;20218;-90
2021/12/16 15:11:09;;;;;;;;;;;;;;;;;;;;;